John_paul K — PBHY — position and weather

sailwx.info

Track history (hours):
 
Tides and Currents Weather Stations Pressure Air Temp Water Temp Dewpoint Dewpoint Depression Visibility Wind Speed Wind Dir Waves Ship Positions

John_paul K

Last reported at 2017-Oct-16 06:36 UTC. Time now 2017-Oct-17 11:56 UTC.
Position N 39°14' W 009°50'.

Length 90 m; draft 5.5 m.

Type: Cargo ship. MMSI: 245181000.

Date/timePositionNaut miles runAvg speedWind from/ knotsBaromVisibWave heightAir tempDewpointWater temp
2017-Oct-16 06:36N 39°14' W 009°50'1 9.3
2017-Oct-16 06:27N 39°12' W 009°50'4 8.9
2017-Oct-16 06:00N 39°08' W 009°50'4 8.6
2017-Oct-16 05:30N 39°04' W 009°50'5 9.7
2017-Oct-16 05:00N 38°59' W 009°50'5 9.6
2017-Oct-16 04:30N 38°54' W 009°50'5 9.6
2017-Oct-16 04:00N 38°49' W 009°50'5 9.8
2017-Oct-16 03:30N 38°45' W 009°50'5 9.4
2017-Oct-16 03:00N 38°40' W 009°49'510.0
2017-Oct-16 02:30N 38°35' W 009°48'510.0
2017-Oct-16 02:00N 38°30' W 009°46'1510.1
2017-Oct-16 00:32N 38°16' W 009°42'2 9.9
2017-Oct-16 00:20N 38°14' W 009°41'4 9.9
2017-Oct-15 23:58N 38°10' W 009°40'5 9.9
2017-Oct-15 23:30N 38°06' W 009°39'510.1
2017-Oct-15 23:00N 38°01' W 009°38'510.3
2017-Oct-15 22:30N 37°56' W 009°36'510.1
2017-Oct-15 22:00N 37°51' W 009°35'610.7
2017-Oct-15 21:28N 37°45' W 009°33'511.0
2017-Oct-15 21:00N 37°41' W 009°32'910.7
2017-Oct-15 20:12N 37°32' W 009°30'210.3
2017-Oct-15 20:00N 37°30' W 009°29'510.3
2017-Oct-15 19:30N 37°25' W 009°27'1410.4
2017-Oct-15 18:08N 37°11' W 009°23'211.7
2017-Oct-15 17:59N 37°10' W 009°23'611.5
2017-Oct-15 17:27N 37°04' W 009°21'511.5
2017-Oct-15 17:00N 36°58' W 009°19'12 9.8
2017-Oct-15 15:49N 36°48' W 009°12'3 9.6
2017-Oct-15 15:30N 36°46' W 009°10'8 9.8
2017-Oct-15 14:42N 36°44' W 009°00'710.3
2017-Oct-15 14:00N 36°42' W 008°52'510.3
2017-Oct-15 13:30N 36°40' W 008°46'510.5
2017-Oct-15 13:01N 36°39' W 008°39'510.8
2017-Oct-15 12:31N 36°37' W 008°33'510.3
2017-Oct-15 12:01N 36°36' W 008°27'510.1
2017-Oct-15 11:30N 36°34' W 008°21'510.1
2017-Oct-15 11:00N 36°33' W 008°15'510.1
2017-Oct-15 10:30N 36°32' W 008°09'510.2
2017-Oct-15 10:00N 36°30' W 008°03'510.1
2017-Oct-15 09:31N 36°29' W 007°56'510.4
2017-Oct-15 09:00N 36°27' W 007°50'510.2
2017-Oct-15 08:31N 36°26' W 007°44'510.1
2017-Oct-15 08:01N 36°25' W 007°38'5 9.9
2017-Oct-15 07:31N 36°23' W 007°32'510.3
2017-Oct-15 07:00N 36°22' W 007°26'510.7
2017-Oct-15 06:30N 36°20' W 007°20'510.4
2017-Oct-15 06:00N 36°19' W 007°13'510.2
2017-Oct-15 05:30N 36°17' W 007°07'510.5
2017-Oct-15 05:00N 36°16' W 007°01'70 9.8
2017-Oct-14 21:54N 35°58' W 005°38'410.2
2017-Oct-14 21:30N 35°59' W 005°33'5 9.8
2017-Oct-14 21:00N 36°00' W 005°27'5 9.7
2017-Oct-14 20:30N 36°04' W 005°23'6 0.2
2017-Oct-13 04:01N 36°09' W 005°26'0 0.0
2017-Oct-12 23:15N 36°09' W 005°26'0 0.0
2017-Oct-12 15:29N 36°09' W 005°26'0 0.0
2017-Oct-12 04:43N 36°09' W 005°26'1 4.3
2017-Oct-12 04:27N 36°09' W 005°24'4 7.1
2017-Oct-12 03:52N 36°05' W 005°23'410.8
2017-Oct-12 03:30N 36°01' W 005°22'5 9.4
2017-Oct-12 03:00N 35°58' W 005°27'7 9.6
2017-Oct-12 02:15N 35°56' W 005°35'2 9.6
2017-Oct-12 02:00N 35°55' W 005°38'  
2017-Oct-07 09:02N 37°33' W 000°36'110.0
2017-Oct-07 08:58N 37°33' W 000°35'4 9.8
2017-Oct-07 08:31N 37°37' W 000°32'5 9.9
2017-Oct-07 08:00N 37°41' W 000°28'  
Track history (hours):
 
Tides and Currents Weather Stations Pressure Air Temp Water Temp Dewpoint Dewpoint Depression Visibility Wind Speed Wind Dir Waves Ship Positions

John_paul K

Last reported at 2017-Oct-16 06:36 UTC. Time now 2017-Oct-17 11:56 UTC.
Position N 39°14' W 009°50'.

Length 90 m; draft 5.5 m.

Type: Cargo ship. MMSI: 245181000.

Date/timePositionNaut miles runAvg speedWind from/ knotsBaromVisibWave heightAir tempDewpointWater temp
2017-Oct-16 06:36N 39°14' W 009°50'1 9.3
2017-Oct-16 06:27N 39°12' W 009°50'4 8.9
2017-Oct-16 06:00N 39°08' W 009°50'4 8.6
2017-Oct-16 05:30N 39°04' W 009°50'5 9.7
2017-Oct-16 05:00N 38°59' W 009°50'5 9.6
2017-Oct-16 04:30N 38°54' W 009°50'5 9.6
2017-Oct-16 04:00N 38°49' W 009°50'5 9.8
2017-Oct-16 03:30N 38°45' W 009°50'5 9.4
2017-Oct-16 03:00N 38°40' W 009°49'510.0
2017-Oct-16 02:30N 38°35' W 009°48'510.0
2017-Oct-16 02:00N 38°30' W 009°46'1510.1
2017-Oct-16 00:32N 38°16' W 009°42'2 9.9
2017-Oct-16 00:20N 38°14' W 009°41'4 9.9
2017-Oct-15 23:58N 38°10' W 009°40'5 9.9
2017-Oct-15 23:30N 38°06' W 009°39'510.1
2017-Oct-15 23:00N 38°01' W 009°38'510.3
2017-Oct-15 22:30N 37°56' W 009°36'510.1
2017-Oct-15 22:00N 37°51' W 009°35'610.7
2017-Oct-15 21:28N 37°45' W 009°33'511.0
2017-Oct-15 21:00N 37°41' W 009°32'910.7
2017-Oct-15 20:12N 37°32' W 009°30'210.3
2017-Oct-15 20:00N 37°30' W 009°29'510.3
2017-Oct-15 19:30N 37°25' W 009°27'1410.4
2017-Oct-15 18:08N 37°11' W 009°23'211.7
2017-Oct-15 17:59N 37°10' W 009°23'611.5
2017-Oct-15 17:27N 37°04' W 009°21'511.5
2017-Oct-15 17:00N 36°58' W 009°19'12 9.8
2017-Oct-15 15:49N 36°48' W 009°12'3 9.6
2017-Oct-15 15:30N 36°46' W 009°10'8 9.8
2017-Oct-15 14:42N 36°44' W 009°00'710.3
2017-Oct-15 14:00N 36°42' W 008°52'510.3
2017-Oct-15 13:30N 36°40' W 008°46'510.5
2017-Oct-15 13:01N 36°39' W 008°39'510.8
2017-Oct-15 12:31N 36°37' W 008°33'510.3
2017-Oct-15 12:01N 36°36' W 008°27'510.1
2017-Oct-15 11:30N 36°34' W 008°21'510.1
2017-Oct-15 11:00N 36°33' W 008°15'510.1
2017-Oct-15 10:30N 36°32' W 008°09'510.2
2017-Oct-15 10:00N 36°30' W 008°03'510.1
2017-Oct-15 09:31N 36°29' W 007°56'510.4
2017-Oct-15 09:00N 36°27' W 007°50'510.2
2017-Oct-15 08:31N 36°26' W 007°44'510.1
2017-Oct-15 08:01N 36°25' W 007°38'5 9.9
2017-Oct-15 07:31N 36°23' W 007°32'510.3
2017-Oct-15 07:00N 36°22' W 007°26'510.7
2017-Oct-15 06:30N 36°20' W 007°20'510.4
2017-Oct-15 06:00N 36°19' W 007°13'510.2
2017-Oct-15 05:30N 36°17' W 007°07'510.5
2017-Oct-15 05:00N 36°16' W 007°01'70 9.8
2017-Oct-14 21:54N 35°58' W 005°38'410.2
2017-Oct-14 21:30N 35°59' W 005°33'5 9.8
2017-Oct-14 21:00N 36°00' W 005°27'5 9.7
2017-Oct-14 20:30N 36°04' W 005°23'6 0.2
2017-Oct-13 04:01N 36°09' W 005°26'0 0.0
2017-Oct-12 23:15N 36°09' W 005°26'0 0.0
2017-Oct-12 15:29N 36°09' W 005°26'0 0.0
2017-Oct-12 04:43N 36°09' W 005°26'1 4.3
2017-Oct-12 04:27N 36°09' W 005°24'4 7.1
2017-Oct-12 03:52N 36°05' W 005°23'410.8
2017-Oct-12 03:30N 36°01' W 005°22'5 9.4
2017-Oct-12 03:00N 35°58' W 005°27'7 9.6
2017-Oct-12 02:15N 35°56' W 005°35'2 9.6
2017-Oct-12 02:00N 35°55' W 005°38'  
2017-Oct-07 09:02N 37°33' W 000°36'110.0
2017-Oct-07 08:58N 37°33' W 000°35'4 9.8
2017-Oct-07 08:31N 37°37' W 000°32'5 9.9
2017-Oct-07 08:00N 37°41' W 000°28'  

Dump ship's entire track history